Time;durP1;ratioP1;P1;durP2;ratioP2;P2;SDS_P1;SDS_P2;PMS_P1;PMS_P2;Temp;Humidity;BMP_temperature;BMP_pressure;BME280_temperature;BME280_humidity;BME280_pressure;Samples;Min_cycle;Max_cycle;Signal;HPM_P1;HPM_P2
2022/02/18 00:01:24;;;;;;;22.30;3.63;;;;;;;7.41;80.34;98857.28;5008139;28;20057;-83
2022/02/18 00:03:52;;;;;;;21.70;3.75;;;;;;;7.49;80.85;98866.41;5004933;28;20057;-82
2022/02/18 00:06:20;;;;;;;29.33;3.10;;;;;;;7.47;81.65;98877.38;5004953;28;20133;-82
2022/02/18 00:08:47;;;;;;;18.58;2.70;;;;;;;7.42;80.77;98872.50;5007448;28;20504;-82
2022/02/18 00:11:13;;;;;;;26.20;4.63;;;;;;;7.36;81.10;98861.50;5006582;28;20050;-82
2022/02/18 00:13:40;;;;;;;15.73;3.38;;;;;;;7.30;82.23;98876.59;5007615;28;20133;-82
2022/02/18 00:16:06;;;;;;;16.45;3.40;;;;;;;7.26;82.56;98881.47;5004934;28;20060;-82
2022/02/18 00:18:34;;;;;;;28.67;4.00;;;;;;;7.21;81.84;98867.63;5010006;28;20104;-83
2022/02/18 00:21:02;;;;;;;16.63;3.65;;;;;;;7.21;82.14;98878.44;5010427;28;20140;-83
2022/02/18 00:23:30;;;;;;;26.90;4.10;;;;;;;7.06;82.73;98855.78;5001757;28;20053;-82
2022/02/18 00:25:57;;;;;;;17.98;3.38;;;;;;;7.02;82.96;98855.31;5007427;28;20068;-82
2022/02/18 00:28:23;;;;;;;19.58;3.70;;;;;;;7.16;83.41;98875.38;5010126;28;20104;-82
2022/02/18 00:30:50;;;;;;;26.40;3.38;;;;;;;6.97;84.11;98870.31;5007705;28;20056;-83
2022/02/18 00:33:19;;;;;;;22.23;3.78;;;;;;;7.00;83.08;98862.75;5005776;28;20053;-83
2022/02/18 00:35:46;;;;;;;25.02;3.75;;;;;;;7.01;83.30;98861.72;4996838;28;20065;-83
2022/02/18 00:38:14;;;;;;;24.02;3.55;;;;;;;7.02;83.29;98852.59;5007647;28;20073;-82
2022/02/18 00:40:42;;;;;;;19.50;3.65;;;;;;;6.97;82.89;98857.69;5012045;28;20049;-84
2022/02/18 00:43:09;;;;;;;26.30;3.85;;;;;;;7.00;84.12;98860.03;5012604;28;20128;-83
2022/02/18 00:45:38;;;;;;;20.85;4.82;;;;;;;6.95;85.02;98866.97;5013058;28;20056;-83
2022/02/18 00:48:05;;;;;;;18.17;3.08;;;;;;;7.05;83.70;98873.03;5012048;28;20057;-83
2022/02/18 00:50:32;;;;;;;22.58;3.88;;;;;;;6.88;84.66;98855.97;5013813;28;20052;-83
2022/02/18 00:52:58;;;;;;;17.90;2.78;;;;;;;6.96;84.32;98876.75;5012466;28;20502;-83
2022/02/18 00:55:25;;;;;;;17.00;2.80;;;;;;;6.98;84.08;98880.13;5009682;28;20464;-83
2022/02/18 00:57:53;;;;;;;23.10;3.63;;;;;;;6.94;84.79;98884.19;5013652;28;20056;-83
2022/02/18 01:00:21;;;;;;;17.67;2.22;;;;;;;6.93;84.43;98880.63;5012507;28;20057;-83
2022/02/18 01:02:47;;;;;;;19.10;3.53;;;;;;;6.94;84.94;98890.44;5013836;28;20406;-83
2022/02/18 01:05:15;;;;;;;22.88;3.42;;;;;;;6.94;85.38;98889.59;5012195;28;20499;-83
2022/02/18 01:07:42;;;;;;;17.95;3.10;;;;;;;6.87;84.52;98889.41;5012203;28;20500;-83
2022/02/18 01:10:10;;;;;;;23.83;3.05;;;;;;;6.88;85.52;98885.69;5017694;28;20052;-82
2022/02/18 01:12:37;;;;;;;25.13;3.20;;;;;;;6.83;84.89;98890.75;5010428;28;20477;-82
2022/02/18 01:15:10;;;;;;;18.95;2.80;;;;;;;6.79;85.30;98870.50;5011548;28;20053;-82
2022/02/18 01:17:37;;;;;;;21.85;3.45;;;;;;;6.80;86.44;98877.59;5013587;28;20141;-82
2022/02/18 01:20:04;;;;;;;16.75;3.47;;;;;;;6.81;86.41;98882.00;5012656;28;20046;-82
2022/02/18 01:22:34;;;;;;;17.48;3.75;;;;;;;6.82;87.12;98878.25;5013265;28;20379;-82
2022/02/18 01:25:07;;;;;;;17.75;3.70;;;;;;;6.79;86.68;98862.38;5015736;28;20425;-82
2022/02/18 01:27:33;;;;;;;28.50;3.47;;;;;;;6.64;86.70;98854.97;5012921;28;20045;-82
2022/02/18 01:30:00;;;;;;;21.50;4.25;;;;;;;6.78;87.18;98871.53;5012082;28;20046;-82
2022/02/18 01:32:28;;;;;;;16.30;3.05;;;;;;;6.78;87.17;98882.31;5011634;28;20054;-82
2022/02/18 01:34:54;;;;;;;18.15;2.70;;;;;;;6.72;86.54;98868.47;5006255;28;20049;-82
2022/02/18 01:37:21;;;;;;;22.52;2.75;;;;;;;6.63;87.85;98853.25;5012961;28;20497;-82
2022/02/18 01:39:48;;;;;;;13.77;2.78;;;;;;;6.73;86.96;98867.47;5012518;28;20038;-82
2022/02/18 01:42:14;;;;;;;13.05;3.10;;;;;;;6.67;87.70;98842.94;5012092;28;20556;-83
2022/02/18 01:44:42;;;;;;;25.70;3.35;;;;;;;6.62;87.69;98856.97;5012396;28;20064;-82
2022/02/18 01:47:13;;;;;;;15.48;2.60;;;;;;;6.72;88.29;98867.63;5011490;28;20053;-82
2022/02/18 01:49:42;;;;;;;18.33;2.92;;;;;;;6.65;88.30;98853.94;5012646;28;20081;-82
2022/02/18 01:52:09;;;;;;;22.45;3.35;;;;;;;6.52;89.39;98834.69;5010519;28;20046;-82
2022/02/18 01:54:37;;;;;;;18.75;2.95;;;;;;;6.61;88.45;98838.22;5010053;28;20121;-82
2022/02/18 01:57:04;;;;;;;18.15;3.22;;;;;;;6.65;88.50;98845.81;5010227;28;20046;-82
2022/02/18 01:59:31;;;;;;;19.88;2.97;;;;;;;6.61;89.01;98846.31;5009961;28;20488;-82
2022/02/18 02:01:58;;;;;;;21.38;3.45;;;;;;;6.62;89.19;98865.06;5012769;28;20054;-82
2022/02/18 02:04:25;;;;;;;18.45;3.00;;;;;;;6.53;88.88;98857.97;5011744;28;20104;-82
2022/02/18 02:06:57;;;;;;;21.40;3.72;;;;;;;6.55;88.97;98864.06;5012564;28;20045;-82
2022/02/18 02:09:24;;;;;;;17.75;3.35;;;;;;;6.59;88.69;98873.50;5011499;28;20046;-82
2022/02/18 02:11:51;;;;;;;20.48;4.40;;;;;;;6.63;88.92;98849.72;5012309;28;20445;-82
2022/02/18 02:14:17;;;;;;;22.80;3.80;;;;;;;6.55;89.69;98851.41;5011669;28;20064;-82
2022/02/18 02:16:44;;;;;;;22.25;3.08;;;;;;;6.53;89.54;98872.34;5011788;28;20045;-82
2022/02/18 02:19:11;;;;;;;13.23;3.25;;;;;;;6.51;90.03;98833.81;5010861;28;20494;-82
2022/02/18 02:21:38;;;;;;;25.52;3.42;;;;;;;6.50;89.76;98856.47;5012038;28;20140;-82
2022/02/18 02:24:06;;;;;;;25.95;3.10;;;;;;;6.33;90.19;98831.25;5010192;28;20058;-82
2022/02/18 02:26:33;;;;;;;12.85;3.50;;;;;;;6.41;91.12;98825.03;5010733;28;20049;-82
2022/02/18 02:29:01;;;;;;;14.50;3.10;;;;;;;6.42;92.32;98842.94;5006853;28;20077;-82
2022/02/18 02:31:27;;;;;;;22.63;2.78;;;;;;;6.23;93.78;98817.06;5011051;28;20543;-82
2022/02/18 02:33:54;;;;;;;32.92;3.60;;;;;;;6.08;94.35;98808.81;5010980;28;20354;-82
2022/02/18 02:36:23;;;;;;;21.63;2.88;;;;;;;6.15;94.40;98812.50;5011509;28;20054;-82
2022/02/18 02:38:51;;;;;;;16.85;3.17;;;;;;;6.09;94.83;98812.34;5011646;28;20057;-82
2022/02/18 02:41:19;;;;;;;22.08;4.05;;;;;;;6.00;95.03;98811.47;5008412;28;20042;-82
2022/02/18 02:43:45;;;;;;;17.75;3.95;;;;;;;5.85;96.15;98822.00;5011022;28;20042;-82
2022/02/18 02:46:12;;;;;;;16.40;3.40;;;;;;;5.68;96.50;98805.75;5011833;28;20412;-82
2022/02/18 02:48:39;;;;;;;11.98;2.55;;;;;;;5.72;97.12;98821.59;5012285;28;20054;-82
2022/02/18 02:51:05;;;;;;;21.92;2.75;;;;;;;5.79;95.39;98815.41;5010052;28;20053;-82
2022/02/18 02:53:32;;;;;;;12.00;2.90;;;;;;;5.77;96.73;98801.22;5009456;28;20057;-82
2022/02/18 02:55:59;;;;;;;16.50;3.08;;;;;;;5.68;97.76;98807.59;5011242;28;20049;-82
2022/02/18 02:58:27;;;;;;;15.48;2.45;;;;;;;5.42;98.31;98792.31;5010002;28;20058;-82
2022/02/18 03:00:53;;;;;;;23.52;3.67;;;;;;;5.48;99.87;98797.06;5011401;28;20050;-82
2022/02/18 03:03:20;;;;;;;17.38;2.92;;;;;;;5.39;99.99;98781.88;5009772;28;20304;-82
2022/02/18 03:05:46;;;;;;;18.13;2.10;;;;;;;5.43;99.71;98779.69;5010935;28;20509;-82
2022/02/18 03:08:13;;;;;;;16.10;2.30;;;;;;;5.36;100.00;98767.84;5010272;28;20049;-82
2022/02/18 03:10:42;;;;;;;19.85;3.35;;;;;;;5.42;100.00;98768.06;5010874;28;20045;-82
2022/02/18 03:13:30;;;;;;;22.38;3.20;;;;;;;5.36;100.00;98757.94;5007978;28;20041;-82
2022/02/18 03:15:57;;;;;;;19.58;2.50;;;;;;;5.30;100.00;98763.97;5004487;28;20046;-82
2022/02/18 03:18:24;;;;;;;25.10;2.83;;;;;;;5.29;100.00;98759.56;5008396;28;20511;-82
2022/02/18 03:20:50;;;;;;;11.85;2.63;;;;;;;5.30;100.00;98764.81;5016594;28;20265;-82
2022/02/18 03:23:17;;;;;;;22.27;3.50;;;;;;;5.20;100.00;98756.00;5008224;28;20493;-82
2022/02/18 03:25:44;;;;;;;15.75;1.98;;;;;;;5.21;100.00;98764.91;5010447;28;20056;-81
2022/02/18 03:28:10;;;;;;;14.32;2.80;;;;;;;5.08;100.00;98768.06;5010335;28;20042;-82
2022/02/18 03:30:38;;;;;;;17.40;3.10;;;;;;;5.00;100.00;98763.47;5010939;28;20060;-82
2022/02/18 03:33:05;;;;;;;16.98;2.40;;;;;;;4.88;100.00;98748.56;5010481;28;20054;-81
2022/02/18 03:35:31;;;;;;;16.23;2.58;;;;;;;4.79;100.00;98747.69;5012739;28;20045;-82
2022/02/18 03:37:58;;;;;;;15.52;2.83;;;;;;;4.72;100.00;98733.97;5008304;28;20046;-82
2022/02/18 03:40:25;;;;;;;14.73;3.03;;;;;;;4.71;100.00;98761.06;4991133;28;20480;-82
2022/02/18 03:42:51;;;;;;;15.48;2.33;;;;;;;4.64;100.00;98739.31;5002589;28;20061;-82
2022/02/18 03:45:18;;;;;;;13.98;3.00;;;;;;;4.53;100.00;98739.56;5010292;28;20041;-82
2022/02/18 03:47:46;;;;;;;14.80;3.35;;;;;;;4.52;100.00;98735.19;5010498;28;20803;-82
2022/02/18 03:50:15;;;;;;;17.80;2.92;;;;;;;4.57;100.00;98727.47;5009356;28;20050;-82
2022/02/18 03:52:41;;;;;;;14.45;3.38;;;;;;;4.58;100.00;98727.31;5008890;28;20045;-83
2022/02/18 03:55:09;;;;;;;16.65;2.70;;;;;;;4.56;100.00;98729.34;5009569;28;20042;-83
2022/02/18 03:57:35;;;;;;;12.77;2.38;;;;;;;4.43;100.00;98724.34;5010100;28;20154;-82
2022/02/18 04:00:02;;;;;;;22.20;3.35;;;;;;;4.39;100.00;98732.91;5009211;28;20405;-82
2022/02/18 04:02:29;;;;;;;12.23;3.38;;;;;;;4.36;100.00;98735.91;5007817;28;20054;-82
2022/02/18 04:04:58;;;;;;;17.35;2.63;;;;;;;4.40;100.00;98739.97;5006613;28;20304;-82
2022/02/18 04:07:25;;;;;;;26.40;4.32;;;;;;;4.35;100.00;98732.38;5010490;28;20068;-82
2022/02/18 04:09:52;;;;;;;22.13;3.10;;;;;;;4.36;100.00;98736.75;5014351;28;20141;-82
2022/02/18 04:12:18;;;;;;;16.40;2.40;;;;;;;4.31;100.00;98722.91;5010132;28;20053;-82
2022/02/18 04:14:45;;;;;;;19.75;3.00;;;;;;;4.32;100.00;98734.50;5011351;28;20049;-82
2022/02/18 04:17:11;;;;;;;21.58;2.95;;;;;;;4.24;100.00;98738.00;5013969;28;20053;-83
2022/02/18 04:19:38;;;;;;;18.73;1.92;;;;;;;4.20;100.00;98728.53;5013127;28;20041;-82
2022/02/18 04:22:06;;;;;;;20.55;2.67;;;;;;;4.29;100.00;98722.25;5013958;28;20065;-82
2022/02/18 04:24:33;;;;;;;16.05;2.10;;;;;;;4.22;100.00;98723.84;5011736;28;20088;-83
2022/02/18 04:26:59;;;;;;;12.35;2.70;;;;;;;4.29;100.00;98721.38;5013839;28;20124;-82
2022/02/18 04:29:28;;;;;;;17.45;2.78;;;;;;;4.31;100.00;98725.59;5013341;28;20056;-82
2022/02/18 04:31:54;;;;;;;19.75;3.25;;;;;;;4.21;100.00;98689.88;5013800;28;20081;-82
2022/02/18 04:34:21;;;;;;;18.30;2.58;;;;;;;4.25;100.00;98696.63;5012430;28;20052;-82
2022/02/18 04:36:47;;;;;;;11.38;2.58;;;;;;;4.22;100.00;98713.09;5013820;28;20062;-82
2022/02/18 04:39:18;;;;;;;12.88;2.42;;;;;;;4.18;100.00;98695.56;5013666;28;20057;-82
2022/02/18 04:41:45;;;;;;;20.80;3.95;;;;;;;4.21;100.00;98696.09;5015111;28;20053;-82
2022/02/18 04:44:14;;;;;;;17.83;2.88;;;;;;;4.30;100.00;98697.00;5003255;28;20058;-82
2022/02/18 04:46:40;;;;;;;9.90;2.75;;;;;;;4.43;100.00;98686.66;5013132;28;20127;-82
2022/02/18 04:49:06;;;;;;;17.77;3.50;;;;;;;4.54;100.00;98672.09;5013624;28;20062;-82
2022/02/18 04:51:41;;;;;;;12.93;2.80;;;;;;;4.66;100.00;98661.09;5013805;28;20516;-82
2022/02/18 04:54:10;;;;;;;24.08;3.25;;;;;;;4.88;100.00;98662.38;5012484;28;20065;-82
2022/02/18 04:56:40;;;;;;;17.38;3.03;;;;;;;4.84;100.00;98640.28;5013472;28;20112;-83
2022/02/18 04:59:07;;;;;;;14.40;2.58;;;;;;;5.01;100.00;98649.28;5013150;28;20050;-82
2022/02/18 05:01:33;;;;;;;20.17;3.08;;;;;;;5.10;100.00;98645.66;5013074;28;20473;-83
2022/02/18 05:04:00;;;;;;;13.32;2.28;;;;;;;4.97;100.00;98632.63;5012835;28;20046;-82
2022/02/18 05:06:26;;;;;;;25.30;2.65;;;;;;;5.03;100.00;98638.34;5009798;28;20061;-82
2022/02/18 05:08:53;;;;;;;17.27;2.55;;;;;;;5.11;100.00;98657.25;5003167;28;20062;-82
2022/02/18 05:11:19;;;;;;;13.52;2.80;;;;;;;5.10;100.00;98659.13;5013190;28;20045;-83
2022/02/18 05:13:47;;;;;;;13.05;2.65;;;;;;;5.22;100.00;98659.63;5010438;28;20050;-82
2022/02/18 05:16:14;;;;;;;11.82;2.53;;;;;;;5.22;100.00;98648.88;5012661;28;20065;-83
2022/02/18 05:18:40;;;;;;;14.55;2.17;;;;;;;5.29;100.00;98633.72;5013308;28;20049;-83
2022/02/18 05:21:07;;;;;;;11.20;1.88;;;;;;;5.36;100.00;98631.25;5013055;28;20050;-82
2022/02/18 05:23:33;;;;;;;16.35;2.50;;;;;;;5.39;100.00;98603.94;5011503;28;20685;-83
2022/02/18 05:26:00;;;;;;;10.27;2.33;;;;;;;5.67;100.00;98615.28;5011351;28;20049;-83
2022/02/18 05:28:26;;;;;;;18.20;2.72;;;;;;;5.79;100.00;98598.75;5012474;28;20049;-83
2022/02/18 05:30:54;;;;;;;18.15;2.33;;;;;;;5.93;100.00;98599.94;5013369;28;20062;-83
2022/02/18 05:33:21;;;;;;;12.73;2.17;;;;;;;5.84;100.00;98575.66;5014030;28;20068;-84
2022/02/18 05:35:48;;;;;;;16.25;2.92;;;;;;;5.98;100.00;98582.28;5011944;28;20405;-83
2022/02/18 05:38:14;;;;;;;29.88;3.25;;;;;;;5.93;100.00;98560.34;5012718;28;20054;-82
2022/02/18 05:40:41;;;;;;;11.85;3.15;;;;;;;6.00;100.00;98569.44;5012578;28;20104;-83
2022/02/18 05:43:07;;;;;;;37.97;15.77;;;;;;;6.10;100.00;98565.75;5001583;28;20054;-83
2022/02/18 05:45:34;;;;;;;102.75;42.67;;;;;;;6.12;100.00;98563.69;5006643;28;20057;-81
2022/02/18 05:48:02;;;;;;;18.10;3.47;;;;;;;6.14;100.00;98550.88;5011483;28;20061;-83
2022/02/18 05:50:28;;;;;;;17.70;2.50;;;;;;;6.15;100.00;98556.09;5012380;28;20060;-82
2022/02/18 05:52:55;;;;;;;18.05;3.70;;;;;;;6.24;100.00;98546.13;5012658;28;20061;-83
2022/02/18 05:55:22;;;;;;;16.33;2.35;;;;;;;6.27;100.00;98553.06;5011024;28;20123;-82
2022/02/18 05:57:59;;;;;;;19.38;2.85;;;;;;;6.30;100.00;98542.75;5016402;28;20045;-82
2022/02/18 06:00:25;;;;;;;12.75;2.53;;;;;;;6.26;100.00;98522.50;5008251;28;20046;-82
2022/02/18 06:02:52;;;;;;;14.63;2.50;;;;;;;6.30;100.00;98528.41;5005094;28;20050;-82
2022/02/18 06:05:20;;;;;;;14.27;3.42;;;;;;;6.39;100.00;98521.97;5011004;28;20485;-82
2022/02/18 06:07:47;;;;;;;12.43;2.33;;;;;;;6.42;100.00;98528.88;5010437;28;20516;-82
2022/02/18 06:10:13;;;;;;;17.27;2.72;;;;;;;6.32;100.00;98516.44;5011290;28;20053;-82
2022/02/18 06:12:40;;;;;;;18.23;2.55;;;;;;;6.39;100.00;98521.97;5012009;28;20045;-82
2022/02/18 06:15:08;;;;;;;26.33;4.07;;;;;;;6.49;100.00;98524.47;5011926;28;20045;-82
2022/02/18 06:17:37;;;;;;;20.25;2.55;;;;;;;6.43;100.00;98519.75;5011376;28;20056;-82
2022/02/18 06:20:07;;;;;;;14.75;2.67;;;;;;;6.46;100.00;98514.84;5013015;28;20063;-82
2022/02/18 06:22:36;;;;;;;14.45;2.00;;;;;;;6.41;100.00;98511.81;5010379;28;20050;-82
2022/02/18 06:25:04;;;;;;;11.00;2.30;;;;;;;6.47;100.00;98519.22;5010868;28;20054;-82
2022/02/18 06:27:30;;;;;;;15.80;2.35;;;;;;;6.48;100.00;98506.59;5012154;28;20057;-82
2022/02/18 06:29:57;;;;;;;20.70;3.20;;;;;;;6.52;100.00;98500.66;5009865;28;20049;-82
2022/02/18 06:32:23;;;;;;;12.93;2.50;;;;;;;6.57;100.00;98493.91;5011959;28;20072;-82
2022/02/18 06:34:51;;;;;;;18.50;2.60;;;;;;;6.55;100.00;98470.59;5011013;28;20464;-82
2022/02/18 06:37:18;;;;;;;14.15;2.15;;;;;;;6.60;100.00;98480.03;5006858;28;20054;-82
2022/02/18 06:39:46;;;;;;;19.65;2.47;;;;;;;6.69;100.00;98481.69;5009883;28;20080;-82
2022/02/18 06:42:12;;;;;;;13.07;2.60;;;;;;;6.73;99.82;98478.44;5011048;28;20520;-82
2022/02/18 06:44:39;;;;;;;14.45;2.60;;;;;;;6.82;99.86;98487.34;5010855;28;20046;-82
2022/02/18 06:47:06;;;;;;;17.98;3.15;;;;;;;6.88;99.18;98481.22;5007788;28;20050;-82
2022/02/18 06:49:32;;;;;;;16.83;3.55;;;;;;;6.91;100.00;98480.88;5005873;28;20050;-82
2022/02/18 06:51:59;;;;;;;19.55;2.97;;;;;;;6.94;99.27;98473.41;5011158;28;20042;-82
2022/02/18 06:54:27;;;;;;;24.15;3.13;;;;;;;6.89;100.00;98469.41;5011245;28;20133;-82
2022/02/18 06:56:57;;;;;;;14.88;2.47;;;;;;;6.97;99.30;98451.44;5012090;28;20049;-82
2022/02/18 06:59:24;;;;;;;16.33;2.55;;;;;;;6.95;99.92;98445.38;5013116;28;20042;-82
2022/02/18 07:01:54;;;;;;;17.92;2.47;;;;;;;6.89;100.00;98431.59;5013262;28;20045;-82
2022/02/18 07:04:21;;;;;;;;;;;;;;;6.99;99.70;98435.91;5007342;28;20085;-83
2022/02/18 07:06:47;;;;;;;11.30;3.05;;;;;;;7.00;100.00;98427.63;5009144;28;19929;-83
2022/02/18 07:09:15;;;;;;;17.60;2.72;;;;;;;7.01;99.57;98420.34;5013562;28;20511;-83
2022/02/18 07:11:42;;;;;;;13.98;2.72;;;;;;;7.19;98.83;98428.16;5011506;28;20142;-82
2022/02/18 07:14:11;;;;;;;17.10;2.17;;;;;;;7.25;99.43;98428.25;5008942;28;20038;-83
2022/02/18 07:16:41;;;;;;;16.13;2.50;;;;;;;7.29;98.07;98422.47;5010710;28;20064;-82
2022/02/18 07:19:08;;;;;;;21.05;2.90;;;;;;;7.26;98.47;98418.28;5006786;28;20050;-82
2022/02/18 07:21:35;;;;;;;11.82;2.25;;;;;;;7.30;98.76;98418.75;5015345;28;20045;-83
2022/02/18 07:24:02;;;;;;;13.85;2.05;;;;;;;7.31;98.58;98413.16;5010238;28;20046;-83
2022/02/18 07:26:28;;;;;;;17.13;2.80;;;;;;;7.26;97.70;98402.91;5010137;28;20053;-83
2022/02/18 07:28:55;;;;;;;16.73;2.15;;;;;;;7.36;99.39;98402.66;5009894;28;20065;-83
2022/02/18 07:31:23;;;;;;;14.15;2.35;;;;;;;7.37;98.56;98398.09;5009871;28;20050;-83
2022/02/18 07:33:49;;;;;;;14.38;2.80;;;;;;;7.39;98.86;98404.13;5010552;28;20042;-83
2022/02/18 07:36:17;;;;;;;18.15;2.33;;;;;;;7.39;99.97;98393.31;5010764;28;20042;-83
2022/02/18 07:38:44;;;;;;;9.50;2.50;;;;;;;7.35;99.22;98384.75;5012091;28;20389;-83
2022/02/18 07:41:13;;;;;;;14.98;2.47;;;;;;;7.50;99.68;98392.03;5009253;28;20488;-83
2022/02/18 07:43:40;;;;;;;23.40;2.40;;;;;;;7.48;100.00;98388.69;5010524;28;20058;-84
2022/02/18 07:46:07;;;;;;;28.13;2.78;;;;;;;7.56;99.35;98377.78;5010688;28;20457;-84
2022/02/18 07:48:36;;;;;;;27.45;3.08;;;;;;;7.53;99.73;98376.28;5009355;28;20391;-83
2022/02/18 07:51:06;;;;;;;16.17;3.10;;;;;;;7.62;99.32;98380.59;5010017;28;20046;-83
2022/02/18 07:53:32;;;;;;;18.88;3.40;;;;;;;7.64;100.00;98364.16;5009464;28;20143;-83
2022/02/18 07:55:59;;;;;;;31.17;2.60;;;;;;;7.69;99.03;98359.03;5009572;28;21795;-82
2022/02/18 07:58:26;;;;;;;12.55;1.98;;;;;;;7.69;97.19;98345.50;5009991;28;20060;-83
2022/02/18 08:00:52;;;;;;;20.40;2.55;;;;;;;7.71;98.08;98338.06;5006975;28;20050;-82
2022/02/18 08:03:19;;;;;;;20.30;3.40;;;;;;;7.86;97.28;98345.31;5008401;28;20141;-81
2022/02/18 08:05:47;;;;;;;15.65;2.85;;;;;;;7.90;98.04;98336.66;5010276;28;20434;-83
2022/02/18 08:08:13;;;;;;;20.55;2.92;;;;;;;8.04;97.08;98337.66;5010921;28;20057;-84
2022/02/18 08:10:40;;;;;;;12.85;2.38;;;;;;;8.04;95.58;98312.44;5000206;28;20064;-84
2022/02/18 08:13:10;;;;;;;13.55;2.83;;;;;;;8.20;95.87;98322.22;5009772;28;20049;-86
2022/02/18 08:15:36;;;;;;;33.33;4.82;;;;;;;8.46;95.41;98327.97;5010848;28;20064;-86
2022/02/18 08:18:04;;;;;;;18.63;2.78;;;;;;;8.48;95.33;98315.06;5010704;28;20069;-86
2022/02/18 08:20:31;;;;;;;10.35;2.72;;;;;;;8.53;95.44;98317.19;5011271;28;20056;-85
2022/02/18 08:22:59;;;;;;;42.00;4.15;;;;;;;8.52;95.61;98307.41;5010784;28;20501;-88
2022/02/18 08:25:26;;;;;;;33.90;3.75;;;;;;;8.61;96.89;98311.66;5012427;28;20056;-86
2022/02/18 08:27:53;;;;;;;18.55;2.67;;;;;;;8.70;96.48;98319.66;5005182;28;20060;-84
2022/02/18 08:30:20;;;;;;;9.35;2.15;;;;;;;8.69;95.16;98308.00;5005984;28;20042;-86
2022/02/18 08:32:46;;;;;;;16.08;2.13;;;;;;;8.75;96.90;98296.38;5014043;28;20046;-83
2022/02/18 08:35:13;;;;;;;21.30;3.22;;;;;;;8.89;95.17;98302.75;5009856;28;20485;-81
2022/02/18 08:37:39;;;;;;;10.15;1.60;;;;;;;8.94;94.64;98305.72;5006911;28;20141;-81
2022/02/18 08:40:08;;;;;;;10.30;1.83;;;;;;;8.89;94.83;98282.94;5005177;28;20053;-82
2022/02/18 08:42:35;;;;;;;24.42;4.65;;;;;;;9.01;96.19;98282.19;5008371;28;20060;-87
2022/02/18 08:45:02;;;;;;;28.48;5.05;;;;;;;9.11;96.45;98284.56;5006722;28;20046;-84
2022/02/18 08:47:28;;;;;;;32.83;7.97;;;;;;;9.14;96.82;98277.94;5010130;28;20057;-83
2022/02/18 08:49:55;;;;;;;15.52;3.40;;;;;;;9.01;96.28;98256.97;5010361;28;20120;-84
2022/02/18 08:52:22;;;;;;;10.52;2.20;;;;;;;9.13;95.67;98268.94;5009847;28;20052;-87
2022/02/18 08:54:48;;;;;;;11.38;3.47;;;;;;;9.21;96.27;98260.66;5010476;28;20042;-86
2022/02/18 08:57:17;;;;;;;16.42;2.28;;;;;;;9.25;95.96;98260.28;4994132;28;20141;-85
2022/02/18 08:59:44;;;;;;;10.45;1.90;;;;;;;9.33;95.59;98254.69;5008467;28;20074;-85
2022/02/18 09:02:11;;;;;;;12.43;1.98;;;;;;;9.47;96.34;98259.16;5013497;28;20046;-83
2022/02/18 09:04:38;;;;;;;12.27;1.95;;;;;;;9.50;95.63;98242.47;5012027;28;20136;-84
2022/02/18 09:07:07;;;;;;;8.73;1.70;;;;;;;9.64;95.68;98243.38;5013047;28;20052;-85
2022/02/18 09:09:34;;;;;;;15.50;3.23;;;;;;;9.56;97.38;98221.84;5012833;28;20041;-83
2022/02/18 09:12:00;;;;;;;11.27;2.67;;;;;;;9.60;97.16;98224.97;5012947;28;20096;-81
2022/02/18 09:14:28;;;;;;;14.57;2.08;;;;;;;9.66;95.67;98221.47;5012626;28;20204;-83
2022/02/18 09:16:58;;;;;;;8.88;2.30;;;;;;;9.54;97.16;98197.63;5012104;28;20053;-86
2022/02/18 09:19:27;;;;;;;6.07;2.45;;;;;;;9.58;97.69;98192.63;5013179;28;20062;-84
2022/02/18 09:21:53;;;;;;;15.98;2.03;;;;;;;9.55;98.26;98202.00;5011578;28;20046;-80
2022/02/18 09:24:20;;;;;;;5.05;1.27;;;;;;;9.58;97.78;98203.47;5012555;28;20374;-81
2022/02/18 09:26:47;;;;;;;28.15;2.67;;;;;;;9.54;99.27;98191.34;5012868;28;20049;-81
2022/02/18 09:29:23;;;;;;;6.93;1.95;;;;;;;9.66;98.93;98194.31;5011842;28;20092;-85
2022/02/18 09:31:55;;;;;;;16.35;1.83;;;;;;;9.69;99.48;98188.50;5014033;28;20099;-89
2022/02/18 09:34:26;;;;;;;13.52;2.15;;;;;;;9.80;98.66;98196.06;5007276;28;20046;-83
2022/02/18 09:36:55;;;;;;;9.85;1.60;;;;;;;9.80;98.71;98182.47;5006639;28;20038;-86
2022/02/18 09:39:22;;;;;;;8.52;2.13;;;;;;;9.92;98.81;98175.41;5012100;28;20048;-86
2022/02/18 09:41:51;;;;;;;10.60;2.22;;;;;;;10.10;100.00;98182.13;5013560;28;20042;-87
2022/02/18 09:44:19;;;;;;;19.38;2.35;;;;;;;10.19;100.00;98169.19;5012908;28;20050;-87
2022/02/18 09:46:49;;;;;;;9.30;1.55;;;;;;;10.36;99.34;98165.06;5000704;28;20054;-85
2022/02/18 09:49:17;;;;;;;7.18;1.83;;;;;;;10.60;99.64;98168.22;5011334;28;20045;-85
2022/02/18 09:51:45;;;;;;;13.85;1.58;;;;;;;10.78;97.94;98164.88;5020182;28;20464;-81
2022/02/18 09:54:12;;;;;;;7.88;1.13;;;;;;;10.94;97.68;98163.56;5001223;28;20042;-84
2022/02/18 09:56:42;;;;;;;10.32;1.10;;;;;;;10.97;97.72;98169.44;4998904;28;20135;-84
2022/02/18 09:59:14;;;;;;;5.13;1.13;;;;;;;11.08;96.45;98154.34;5010835;28;20054;-83
2022/02/18 10:01:41;;;;;;;17.38;5.10;;;;;;;11.14;97.25;98139.03;5010198;28;20052;-84
2022/02/18 10:04:10;;;;;;;6.90;1.98;;;;;;;11.20;97.18;98149.09;5008315;28;20492;-84
2022/02/18 10:06:38;;;;;;;9.65;2.67;;;;;;;11.11;97.78;98132.16;5009210;28;20482;-83
2022/02/18 10:09:05;;;;;;;14.32;2.75;;;;;;;11.16;98.13;98124.19;5009402;28;20104;-83
2022/02/18 10:11:52;;;;;;;17.63;2.38;;;;;;;11.33;97.49;98120.97;4995577;28;20043;-86
2022/02/18 10:14:20;;;;;;;14.75;4.68;;;;;;;11.33;97.18;98113.66;5010287;28;20042;-84
2022/02/18 10:16:47;;;;;;;4.43;1.40;;;;;;;11.43;96.74;98121.38;5015799;28;20045;-82
2022/02/18 10:19:14;;;;;;;5.68;1.35;;;;;;;11.57;96.90;98107.69;5009304;28;20077;-83
2022/02/18 10:21:42;;;;;;;15.15;1.92;;;;;;;11.63;96.41;98107.66;5009936;28;20092;-88
2022/02/18 10:24:12;;;;;;;6.15;1.70;;;;;;;11.77;94.83;98116.59;5008938;28;20085;-86
2022/02/18 10:26:41;;;;;;;5.47;1.13;;;;;;;11.83;94.31;98115.72;5009475;28;20045;-84
2022/02/18 10:29:10;;;;;;;10.32;1.60;;;;;;;11.85;95.18;98113.59;5008078;28;20128;-84
2022/02/18 10:31:37;;;;;;;11.95;1.25;;;;;;;11.84;96.09;98100.22;5007350;28;20060;-84
2022/02/18 10:34:05;;;;;;;10.85;4.55;;;;;;;11.96;95.46;98108.56;5005666;28;20124;-86
2022/02/18 10:36:37;;;;;;;7.25;1.50;;;;;;;11.98;94.71;98082.78;5010158;28;20124;-84
2022/02/18 10:39:27;;;;;;;4.13;0.93;;;;;;;12.03;94.96;98077.47;5007858;28;20148;-85
2022/02/18 10:41:57;;;;;;;16.50;1.45;;;;;;;12.20;95.65;98074.22;5008226;28;20052;-85
2022/02/18 10:44:26;;;;;;;6.32;1.15;;;;;;;12.28;93.36;98073.91;5006751;28;20473;-85
2022/02/18 10:46:56;;;;;;;5.10;1.30;;;;;;;12.38;92.00;98085.16;5009535;28;20042;-82
2022/02/18 10:49:23;;;;;;;6.43;1.42;;;;;;;12.51;90.22;98062.41;5008681;28;20453;-84
2022/02/18 10:51:51;;;;;;;3.60;1.15;;;;;;;12.71;91.02;98061.38;5005525;28;20112;-85
2022/02/18 10:54:28;;;;;;;4.63;1.35;;;;;;;12.71;88.00;98056.75;4995911;28;20493;-88
2022/02/18 10:57:16;;;;;;;10.95;2.95;;;;;;;12.62;89.67;98035.47;5000616;28;20073;-85
2022/02/18 10:59:43;;;;;;;10.30;1.90;;;;;;;12.85;89.41;98049.25;5002226;28;20111;-81
2022/02/18 11:02:12;;;;;;;2.80;0.90;;;;;;;12.96;88.32;98044.09;5006554;28;20060;-79
2022/02/18 11:04:39;;;;;;;6.55;1.00;;;;;;;12.98;88.55;98021.00;5009331;28;20068;-84
2022/02/18 11:07:10;;;;;;;4.40;1.27;;;;;;;13.07;88.49;98016.91;5011452;28;20045;-83
2022/02/18 11:09:37;;;;;;;4.82;1.23;;;;;;;13.17;86.35;98005.44;5008257;28;20054;-86
2022/02/18 11:12:18;;;;;;;5.53;1.23;;;;;;;13.34;86.85;97996.63;5008347;28;20132;-86
2022/02/18 11:14:53;;;;;;;7.90;1.65;;;;;;;13.48;84.76;97970.00;5008766;28;20049;-86
2022/02/18 11:17:21;;;;;;;8.63;1.25;;;;;;;13.75;84.24;97979.44;5007931;28;20073;-86
2022/02/18 11:19:50;;;;;;;6.47;1.45;;;;;;;13.72;82.33;97959.97;5006396;28;20328;-85
2022/02/18 11:22:20;;;;;;;2.85;1.25;;;;;;;13.96;82.23;97961.63;5008627;28;20249;-85
2022/02/18 11:24:48;;;;;;;3.53;0.90;;;;;;;14.13;81.29;97964.50;5007948;28;20058;-86
2022/02/18 11:27:15;;;;;;;36.33;3.83;;;;;;;14.08;78.50;97950.72;5008489;28;20131;-85
2022/02/18 11:29:42;;;;;;;9.48;1.35;;;;;;;14.15;77.93;97948.72;5009380;28;20448;-85
2022/02/18 11:32:21;;;;;;;10.07;1.90;;;;;;;14.20;77.81;97945.25;5016595;28;20084;-82
2022/02/18 11:35:04;;;;;;;20.88;2.35;;;;;;;14.03;74.32;97927.91;5009114;28;20137;-84